createdAt,value
2023-03-07T00:00:13.248Z,26.35
2023-03-07T00:10:24.326Z,25.23
2023-03-07T00:13:58.290Z,24.67
2023-03-07T00:17:22.102Z,25.75
2023-03-07T00:20:59.141Z,26.55
2023-03-07T00:26:45.547Z,24.70
2023-03-07T00:29:16.449Z,26.58
2023-03-07T00:32:03.753Z,27.13
2023-03-07T00:35:32.567Z,23.25
2023-03-07T00:38:00.682Z,23.88
2023-03-07T00:41:24.019Z,24.77
2023-03-07T00:44:45.872Z,24.25
2023-03-07T00:47:51.664Z,26.50
2023-03-07T00:54:04.028Z,26.17
2023-03-07T00:57:15.820Z,26.35
2023-03-07T01:00:06.651Z,24.48
2023-03-07T01:03:25.082Z,25.33
2023-03-07T01:06:49.115Z,26.00
2023-03-07T01:13:37.351Z,24.52
2023-03-07T01:16:47.348Z,26.17
2023-03-07T01:20:09.799Z,25.73
2023-03-07T01:23:10.833Z,25.52
2023-03-07T01:26:07.346Z,25.80
2023-03-07T01:28:55.258Z,25.88
2023-03-07T01:31:53.504Z,25.80
2023-03-07T01:34:50.059Z,27.10
2023-03-07T01:41:16.125Z,25.33
2023-03-07T01:44:33.127Z,26.95
2023-03-07T01:55:14.801Z,26.17
2023-03-07T02:01:45.972Z,25.10
2023-03-07T02:08:32.983Z,26.95
2023-03-07T02:11:27.683Z,26.08
2023-03-07T02:13:54.813Z,27.25
2023-03-07T02:16:21.962Z,26.23
2023-03-07T02:18:50.731Z,26.98
2023-03-07T02:21:40.501Z,26.17
2023-03-07T02:24:32.689Z,27.33
2023-03-07T02:26:59.720Z,26.50
2023-03-07T02:29:26.735Z,26.95
2023-03-07T02:31:54.025Z,26.48
2023-03-07T02:34:29.529Z,27.48
2023-03-07T02:37:33.323Z,28.10
2023-03-07T02:40:07.267Z,29.52
2023-03-07T02:42:37.714Z,26.98
2023-03-07T02:45:15.505Z,27.60
2023-03-07T02:47:45.758Z,27.33
2023-03-07T02:50:16.576Z,26.33
2023-03-07T02:52:46.781Z,26.20
2023-03-07T02:55:13.825Z,27.58
2023-03-07T02:57:47.213Z,26.60
2023-03-07T03:00:14.886Z,27.65
2023-03-07T03:02:42.496Z,26.40
2023-03-07T03:05:09.687Z,27.77
2023-03-07T03:07:36.621Z,25.92
2023-03-07T03:10:04.542Z,28.45
2023-03-07T03:12:32.799Z,26.05
2023-03-07T03:15:00.118Z,27.20
2023-03-07T03:17:27.171Z,26.02
2023-03-07T03:19:54.131Z,26.67
2023-03-07T03:22:21.555Z,25.65
2023-03-07T03:24:51.001Z,26.08
2023-03-07T03:27:19.545Z,27.63
2023-03-07T03:29:49.442Z,26.40
2023-03-07T03:32:16.981Z,27.35
2023-03-07T03:34:45.203Z,25.75
2023-03-07T03:37:13.148Z,27.08
2023-03-07T03:39:40.936Z,26.65
2023-03-07T03:42:08.914Z,24.98
2023-03-07T03:44:35.817Z,26.27
2023-03-07T03:47:02.825Z,24.60
2023-03-07T03:49:29.956Z,24.90
2023-03-07T03:51:56.960Z,25.20
2023-03-07T03:54:24.270Z,24.77
2023-03-07T03:56:51.250Z,25.25
2023-03-07T03:59:18.157Z,24.35
2023-03-07T04:01:46.479Z,24.40
2023-03-07T04:04:13.576Z,24.58
2023-03-07T04:06:40.528Z,24.42
2023-03-07T04:09:07.499Z,26.00
2023-03-07T04:11:36.762Z,23.98
2023-03-07T04:14:04.105Z,23.50
2023-03-07T04:16:31.301Z,25.25
2023-03-07T04:18:59.285Z,24.67
2023-03-07T04:21:26.354Z,22.90
2023-03-07T04:23:58.735Z,25.25
2023-03-07T04:26:30.782Z,24.15
2023-03-07T04:28:57.752Z,24.25
2023-03-07T04:31:31.391Z,23.67
2023-03-07T04:34:01.035Z,23.60
2023-03-07T04:36:28.621Z,22.55
2023-03-07T04:38:55.625Z,23.25
2023-03-07T04:41:26.769Z,24.15
2023-03-07T04:44:21.246Z,24.02
2023-03-07T04:46:48.811Z,23.13
2023-03-07T04:49:16.643Z,22.80
2023-03-07T04:51:44.178Z,22.33
2023-03-07T04:54:13.553Z,25.20
2023-03-07T04:56:41.364Z,23.45
2023-03-07T04:59:10.354Z,24.15
2023-03-07T05:01:37.545Z,23.48
2023-03-07T05:04:05.401Z,23.75
2023-03-07T05:06:32.571Z,22.85
2023-03-07T05:08:59.709Z,25.13
2023-03-07T05:11:27.064Z,24.40
2023-03-07T05:13:54.116Z,23.45
2023-03-07T05:16:22.797Z,24.77
2023-03-07T05:18:50.181Z,25.08
2023-03-07T05:21:20.132Z,25.30
2023-03-07T05:23:47.848Z,23.77
2023-03-07T05:26:14.751Z,25.20
2023-03-07T05:28:44.944Z,24.50
2023-03-07T05:31:13.431Z,23.75
2023-03-07T05:33:42.903Z,23.95
2023-03-07T05:36:10.569Z,22.90
2023-03-07T05:38:38.002Z,24.27
2023-03-07T05:41:05.259Z,24.38
2023-03-07T05:43:32.426Z,25.25
2023-03-07T05:46:02.598Z,24.73
2023-03-07T05:48:30.776Z,24.08
2023-03-07T05:51:03.083Z,22.58
2023-03-07T05:53:30.987Z,24.05
2023-03-07T05:55:58.580Z,23.58
2023-03-07T05:58:25.920Z,23.13
2023-03-07T06:00:55.229Z,25.40
2023-03-07T06:03:23.094Z,23.73
2023-03-07T06:05:50.886Z,24.33
2023-03-07T06:08:18.181Z,25.80
2023-03-07T06:10:51.289Z,24.30
2023-03-07T06:13:24.417Z,25.63
2023-03-07T06:15:55.208Z,24.77
2023-03-07T06:18:25.861Z,24.50
2023-03-07T06:21:04.421Z,24.48
2023-03-07T06:23:37.275Z,25.63
2023-03-07T06:26:10.477Z,23.50
2023-03-07T06:28:38.140Z,25.13
2023-03-07T06:31:13.058Z,23.88
2023-03-07T06:33:41.120Z,22.77
2023-03-07T06:36:10.041Z,22.55
2023-03-07T06:38:38.761Z,23.10
2023-03-07T06:41:06.721Z,23.42
2023-03-07T06:43:34.129Z,23.48
2023-03-07T06:46:01.825Z,22.63
2023-03-07T06:48:35.018Z,22.27
2023-03-07T06:51:08.707Z,20.88
2023-03-07T06:53:37.207Z,20.02
2023-03-07T06:56:04.860Z,20.35
2023-03-07T06:58:33.506Z,20.20
2023-03-07T07:01:01.055Z,18.95
2023-03-07T07:03:28.808Z,19.48
2023-03-07T07:05:55.777Z,19.92
2023-03-07T07:08:25.085Z,19.25
2023-03-07T07:10:52.488Z,20.23
2023-03-07T07:13:19.625Z,20.02
2023-03-07T07:15:46.676Z,18.77
2023-03-07T07:18:14.255Z,18.58
2023-03-07T07:20:43.407Z,19.98
2023-03-07T07:23:10.644Z,18.05
2023-03-07T07:25:40.832Z,19.23
2023-03-07T07:28:07.800Z,18.27
2023-03-07T07:30:34.833Z,18.80
2023-03-07T07:33:01.929Z,18.52
2023-03-07T07:35:29.538Z,17.63
2023-03-07T07:37:56.713Z,18.95
2023-03-07T07:40:23.680Z,18.58
2023-03-07T07:42:54.836Z,17.70
2023-03-07T07:45:44.198Z,18.50
2023-03-07T07:48:15.137Z,18.02
2023-03-07T07:50:42.399Z,16.73
2023-03-07T07:53:09.303Z,17.48
2023-03-07T07:55:36.464Z,16.77
2023-03-07T07:58:03.548Z,17.17
2023-03-07T08:00:32.010Z,16.80
2023-03-07T08:02:59.855Z,16.52
2023-03-07T08:05:27.070Z,16.20
2023-03-07T08:07:56.972Z,15.82
2023-03-07T08:10:24.264Z,16.33
2023-03-07T08:12:51.836Z,16.48
2023-03-07T08:15:21.651Z,17.20
2023-03-07T08:17:50.597Z,18.08
2023-03-07T08:20:22.636Z,17.05
2023-03-07T08:22:50.704Z,18.92
2023-03-07T08:25:23.852Z,19.00
2023-03-07T08:27:55.389Z,16.02
2023-03-07T08:30:27.315Z,16.73
2023-03-07T08:32:55.766Z,15.95
2023-03-07T08:35:25.407Z,15.98
2023-03-07T08:37:56.796Z,17.05
2023-03-07T08:40:25.162Z,16.95
2023-03-07T08:42:52.405Z,15.55
2023-03-07T08:45:21.324Z,16.98
2023-03-07T08:47:52.619Z,16.60
2023-03-07T08:50:21.243Z,16.27
2023-03-07T08:52:48.322Z,15.68
2023-03-07T08:55:16.922Z,15.07
2023-03-07T08:57:47.950Z,15.27
2023-03-07T09:00:15.361Z,14.98
2023-03-07T09:02:42.522Z,15.30
2023-03-07T09:05:10.443Z,14.75
2023-03-07T09:07:37.434Z,13.77
2023-03-07T09:10:06.043Z,13.13
2023-03-07T09:12:34.572Z,13.90
2023-03-07T09:15:01.630Z,12.88
2023-03-07T09:17:28.728Z,13.13
2023-03-07T09:19:56.663Z,12.23
2023-03-07T09:22:23.566Z,12.18
2023-03-07T09:24:50.883Z,11.48
2023-03-07T09:27:19.118Z,9.63
2023-03-07T09:32:43.109Z,12.52
2023-03-07T09:35:10.487Z,11.85
2023-03-07T09:37:37.645Z,13.13
2023-03-07T09:40:08.031Z,11.90
2023-03-07T09:42:59.357Z,12.20
2023-03-07T09:45:48.838Z,12.45
2023-03-07T09:49:04.961Z,14.60
2023-03-07T09:51:46.777Z,14.02
2023-03-07T09:54:41.327Z,13.80
2023-03-07T09:57:18.204Z,15.88
2023-03-07T09:59:47.469Z,16.27
2023-03-07T10:02:26.361Z,14.30
2023-03-07T10:05:05.542Z,15.02
2023-03-07T10:07:33.142Z,15.73
2023-03-07T10:10:03.753Z,16.67
2023-03-07T10:13:11.897Z,16.00
2023-03-07T10:15:49.093Z,15.70
2023-03-07T10:18:40.153Z,16.08
2023-03-07T10:21:48.639Z,16.63
2023-03-07T10:24:53.302Z,15.93
2023-03-07T10:27:26.252Z,14.77
2023-03-07T10:29:55.902Z,14.60
2023-03-07T10:32:41.431Z,13.50
2023-03-07T10:35:11.381Z,13.50
2023-03-07T10:37:51.857Z,12.52
2023-03-07T10:40:42.391Z,12.00
2023-03-07T10:43:23.239Z,12.13
2023-03-07T10:45:53.212Z,11.77
2023-03-07T10:48:21.738Z,11.25
2023-03-07T10:50:56.963Z,11.75
2023-03-07T10:53:30.828Z,9.48
2023-03-07T10:56:27.286Z,10.65
2023-03-07T10:59:03.303Z,8.70
2023-03-07T11:01:32.759Z,9.25
2023-03-07T11:04:02.628Z,10.00
2023-03-07T11:06:39.848Z,9.50
2023-03-07T11:09:30.023Z,9.27
2023-03-07T11:11:58.311Z,9.15
2023-03-07T11:14:29.490Z,9.57
2023-03-07T11:17:02.883Z,9.30
2023-03-07T11:19:35.085Z,9.35
2023-03-07T11:22:19.280Z,8.75
2023-03-07T11:25:15.903Z,9.02
2023-03-07T11:27:45.743Z,7.72
2023-03-07T11:30:22.478Z,9.50
2023-03-07T11:32:59.383Z,9.50
2023-03-07T11:35:59.292Z,10.05
2023-03-07T11:38:58.411Z,9.40
2023-03-07T11:41:32.485Z,10.73
2023-03-07T11:44:28.411Z,10.80
2023-03-07T11:46:58.126Z,10.85
2023-03-07T11:49:31.586Z,10.15
2023-03-07T11:52:35.975Z,10.87
2023-03-07T11:55:37.006Z,10.93
2023-03-07T11:58:36.295Z,13.13
2023-03-07T12:01:55.607Z,11.98
2023-03-07T12:04:22.530Z,13.90
2023-03-07T12:07:22.733Z,13.30
2023-03-07T12:09:52.745Z,14.05
2023-03-07T12:12:25.937Z,15.18
2023-03-07T12:15:08.043Z,13.73
2023-03-07T12:18:13.450Z,15.10
2023-03-07T12:20:47.470Z,14.70
2023-03-07T12:23:38.189Z,14.77
2023-03-07T12:26:39.913Z,16.45
2023-03-07T12:29:17.445Z,15.98
2023-03-07T12:31:50.910Z,16.42
2023-03-07T12:34:26.430Z,16.80
2023-03-07T12:37:10.904Z,15.48
2023-03-07T12:39:43.975Z,16.23
2023-03-07T12:42:19.697Z,14.65
2023-03-07T12:44:51.265Z,14.73
2023-03-07T12:47:46.800Z,15.10
2023-03-07T12:50:24.157Z,14.57
2023-03-07T12:53:12.742Z,14.30
2023-03-07T12:55:46.742Z,15.23
2023-03-07T12:58:16.371Z,15.43
2023-03-07T13:00:59.638Z,15.30
2023-03-07T13:03:37.848Z,14.73
2023-03-07T13:06:10.182Z,15.07
2023-03-07T13:08:38.009Z,14.13
2023-03-07T13:11:05.368Z,14.75
2023-03-07T13:13:41.518Z,14.23
2023-03-07T13:16:12.866Z,15.07
2023-03-07T13:18:40.058Z,14.27
2023-03-07T13:21:33.015Z,14.35
2023-03-07T13:24:36.235Z,12.30
2023-03-07T13:27:42.188Z,13.63
2023-03-07T13:30:12.232Z,14.15
2023-03-07T13:32:51.146Z,14.07
2023-03-07T13:35:39.419Z,13.70
2023-03-07T13:38:15.467Z,13.20
2023-03-07T13:40:46.517Z,13.02
2023-03-07T13:43:19.551Z,12.48
2023-03-07T13:46:28.199Z,11.70
2023-03-07T13:48:55.179Z,11.38
2023-03-07T13:51:22.294Z,9.23
2023-03-07T13:54:02.699Z,9.18
2023-03-07T13:56:35.702Z,8.93
2023-03-07T13:59:06.875Z,8.50
2023-03-07T14:01:47.149Z,10.65
2023-03-07T14:04:42.327Z,8.93
2023-03-07T14:07:22.091Z,8.68
2023-03-07T14:10:21.929Z,8.25
2023-03-07T14:13:09.501Z,8.48
2023-03-07T14:15:57.783Z,8.13
2023-03-07T14:18:33.781Z,5.88
2023-03-07T14:21:15.033Z,4.65
2023-03-07T14:24:13.417Z,5.18
2023-03-07T14:26:48.805Z,2.35
2023-03-07T14:29:24.845Z,2.13
2023-03-07T14:31:58.266Z,1.98
2023-03-07T14:34:32.317Z,1.90
2023-03-07T14:37:07.034Z,1.40
2023-03-07T14:39:43.145Z,1.38
2023-03-07T14:42:26.309Z,1.13
2023-03-07T14:45:06.206Z,1.65
2023-03-07T14:47:42.157Z,1.02
2023-03-07T14:50:16.804Z,1.27
2023-03-07T14:52:45.150Z,1.20
2023-03-07T14:55:21.144Z,1.20
2023-03-07T14:57:53.592Z,2.15
2023-03-07T15:00:26.081Z,0.98
2023-03-07T15:03:08.151Z,0.93
2023-03-07T15:05:36.715Z,1.10
2023-03-07T15:08:04.360Z,1.38
2023-03-07T15:10:43.996Z,1.52
2023-03-07T15:13:36.319Z,1.30
2023-03-07T15:16:09.190Z,1.20
2023-03-07T15:18:41.841Z,1.20
2023-03-07T15:21:17.923Z,1.30
2023-03-07T15:23:57.787Z,1.42
2023-03-07T15:26:26.682Z,1.38
2023-03-07T15:29:09.136Z,1.38
2023-03-07T15:31:50.709Z,1.40
2023-03-07T15:34:40.807Z,1.52
2023-03-07T15:37:28.791Z,1.67
2023-03-07T15:40:08.081Z,1.27
2023-03-07T15:42:52.904Z,1.17
2023-03-07T15:45:40.953Z,1.40
2023-03-07T15:48:12.678Z,1.20
2023-03-07T15:50:39.700Z,1.63
2023-03-07T15:53:09.485Z,1.67
2023-03-07T15:55:39.148Z,1.13
2023-03-07T15:58:14.005Z,1.60
2023-03-07T16:00:42.459Z,1.20
2023-03-07T16:03:25.110Z,2.90
2023-03-07T16:05:53.190Z,1.85
2023-03-07T16:08:20.272Z,1.83
2023-03-07T16:10:56.366Z,1.88
2023-03-07T16:13:28.179Z,1.83
2023-03-07T16:16:04.334Z,2.30
2023-03-07T16:18:31.859Z,2.15
2023-03-07T16:20:58.928Z,2.22
2023-03-07T16:23:28.871Z,1.90
2023-03-07T16:25:56.771Z,2.17
2023-03-07T16:28:23.917Z,1.75
2023-03-07T16:30:51.033Z,1.75
2023-03-07T16:33:18.040Z,3.45
2023-03-07T16:35:45.467Z,1.90
2023-03-07T16:38:12.623Z,2.80
2023-03-07T16:40:45.076Z,1.98
2023-03-07T16:43:31.729Z,1.80
2023-03-07T16:46:01.531Z,1.55
2023-03-07T16:48:28.613Z,1.90
2023-03-07T16:50:55.477Z,1.90
2023-03-07T16:53:22.500Z,2.70
2023-03-07T16:55:49.512Z,2.15
2023-03-07T16:58:29.672Z,2.15
2023-03-07T17:00:59.019Z,2.25
2023-03-07T17:03:27.553Z,3.08
2023-03-07T17:05:54.862Z,2.40
2023-03-07T17:08:21.728Z,2.28
2023-03-07T17:10:49.146Z,2.20
2023-03-07T17:13:18.477Z,3.13
2023-03-07T17:15:47.130Z,2.13
2023-03-07T17:18:14.167Z,1.98
2023-03-07T17:20:41.797Z,2.17
2023-03-07T17:23:08.674Z,2.45
2023-03-07T17:25:35.705Z,1.88
2023-03-07T17:28:14.941Z,1.90
2023-03-07T17:30:45.128Z,2.30
2023-03-07T17:33:12.684Z,2.65
2023-03-07T17:35:39.559Z,2.33
2023-03-07T17:38:06.584Z,2.47
2023-03-07T17:40:33.862Z,2.53
2023-03-07T17:43:00.842Z,3.80
2023-03-07T17:45:27.835Z,2.17
2023-03-07T17:47:55.066Z,2.40
2023-03-07T17:50:26.021Z,2.85
2023-03-07T17:52:56.128Z,2.25
2023-03-07T17:55:25.238Z,3.25
2023-03-07T17:57:52.390Z,2.60
2023-03-07T18:00:20.999Z,2.38
2023-03-07T18:02:48.577Z,3.05
2023-03-07T18:05:15.692Z,2.33
2023-03-07T18:07:42.671Z,2.65
2023-03-07T18:10:10.899Z,3.05
2023-03-07T18:12:39.367Z,2.72
2023-03-07T18:15:08.569Z,3.33
2023-03-07T18:17:46.877Z,3.28
2023-03-07T18:20:14.598Z,3.67
2023-03-07T18:22:42.212Z,2.78
2023-03-07T18:25:12.654Z,3.47
2023-03-07T18:27:39.762Z,3.38
2023-03-07T18:30:07.276Z,3.63
2023-03-07T18:32:34.506Z,3.15
2023-03-07T18:35:01.862Z,3.58
2023-03-07T18:37:28.958Z,3.38
2023-03-07T18:39:56.065Z,3.08
2023-03-07T18:42:23.105Z,3.05
2023-03-07T18:44:49.962Z,3.30
2023-03-07T18:47:17.204Z,3.30
2023-03-07T18:49:44.594Z,3.60
2023-03-07T18:52:11.458Z,3.53
2023-03-07T18:54:38.513Z,3.25
2023-03-07T18:57:05.497Z,3.10
2023-03-07T18:59:32.350Z,2.83
2023-03-07T19:02:03.369Z,3.55
2023-03-07T19:04:31.561Z,2.92
2023-03-07T19:06:59.779Z,2.97
2023-03-07T19:09:27.116Z,2.35
2023-03-07T19:11:54.041Z,2.50
2023-03-07T19:14:21.193Z,2.53
2023-03-07T19:16:48.604Z,2.45
2023-03-07T19:19:16.175Z,2.40
2023-03-07T19:21:46.509Z,2.33
2023-03-07T19:24:16.103Z,2.20
2023-03-07T19:26:43.522Z,2.33
2023-03-07T19:29:13.257Z,2.45
2023-03-07T19:31:43.850Z,2.03
2023-03-07T19:34:11.101Z,2.17
2023-03-07T19:36:41.322Z,2.35
2023-03-07T19:39:20.456Z,2.42
2023-03-07T19:41:50.548Z,2.90
2023-03-07T19:44:18.208Z,2.63
2023-03-07T19:46:48.305Z,2.72
2023-03-07T19:49:16.358Z,2.58
2023-03-07T19:51:43.413Z,3.50
2023-03-07T19:54:14.156Z,3.53
2023-03-07T19:56:42.761Z,3.65
2023-03-07T19:59:10.130Z,3.88
2023-03-07T20:01:37.096Z,3.22
2023-03-07T20:04:04.942Z,3.45
2023-03-07T20:06:33.218Z,3.28
2023-03-07T20:09:00.856Z,3.75
2023-03-07T20:11:35.097Z,3.80
2023-03-07T20:14:05.067Z,4.93
2023-03-07T20:16:33.796Z,5.65
2023-03-07T20:19:04.182Z,6.20
2023-03-07T20:21:33.099Z,4.78
2023-03-07T20:24:00.717Z,5.05
2023-03-07T20:26:31.837Z,5.75
2023-03-07T20:29:00.384Z,6.03
2023-03-07T20:31:27.832Z,6.68
2023-03-07T20:33:55.205Z,6.88
2023-03-07T20:36:28.760Z,6.95
2023-03-07T20:38:58.841Z,7.93
2023-03-07T20:41:29.149Z,7.40
2023-03-07T20:44:04.948Z,8.73
2023-03-07T20:46:33.289Z,8.40
2023-03-07T20:49:02.164Z,8.02
2023-03-07T20:51:32.030Z,9.10
2023-03-07T20:54:13.991Z,8.63
2023-03-07T20:56:48.482Z,8.23
2023-03-07T20:59:18.147Z,10.40
2023-03-07T21:01:45.659Z,9.60
2023-03-07T21:04:15.417Z,9.05
2023-03-07T21:06:43.905Z,8.57
2023-03-07T21:09:12.870Z,7.90
2023-03-07T21:11:42.750Z,8.40
2023-03-07T21:14:09.810Z,8.60
2023-03-07T21:16:37.057Z,9.32
2023-03-07T21:19:06.184Z,10.23
2023-03-07T21:21:34.645Z,9.35
2023-03-07T21:24:02.405Z,8.25
2023-03-07T21:26:32.322Z,8.65
2023-03-07T21:29:31.466Z,9.23
2023-03-07T21:31:58.539Z,8.00
2023-03-07T21:34:27.170Z,8.98
2023-03-07T21:36:56.419Z,8.27
2023-03-07T21:39:25.070Z,8.38
2023-03-07T21:41:52.377Z,10.23
2023-03-07T21:44:19.559Z,8.70
2023-03-07T21:46:46.558Z,9.98
2023-03-07T21:49:13.780Z,9.15
2023-03-07T21:51:41.475Z,8.98
2023-03-07T21:54:08.463Z,8.48
2023-03-07T21:56:35.559Z,8.77
2023-03-07T21:59:02.659Z,9.13
2023-03-07T22:01:30.126Z,8.98
2023-03-07T22:04:03.702Z,9.10
2023-03-07T22:06:31.126Z,9.27
2023-03-07T22:09:07.585Z,9.20
2023-03-07T22:11:34.615Z,9.23
2023-03-07T22:14:01.567Z,8.90
2023-03-07T22:16:28.630Z,9.40
2023-03-07T22:18:56.673Z,8.73
2023-03-07T22:21:26.466Z,8.35
2023-03-07T22:24:01.332Z,8.52
2023-03-07T22:26:30.627Z,10.07
2023-03-07T22:28:58.400Z,8.38
2023-03-07T22:31:27.257Z,8.80
2023-03-07T22:33:54.368Z,8.57
2023-03-07T22:36:21.557Z,8.82
2023-03-07T22:38:54.385Z,9.00
2023-03-07T22:41:22.095Z,9.13
2023-03-07T22:43:49.032Z,8.70
2023-03-07T22:46:16.057Z,8.93
2023-03-07T22:48:43.059Z,8.52
2023-03-07T22:51:18.185Z,9.18
2023-03-07T22:53:45.815Z,9.90
2023-03-07T22:56:30.101Z,10.35
2023-03-07T22:58:57.611Z,9.93
2023-03-07T23:01:27.216Z,9.52
2023-03-07T23:03:55.703Z,8.23
2023-03-07T23:06:24.740Z,8.90
2023-03-07T23:08:53.579Z,8.27
2023-03-07T23:11:22.958Z,8.80
2023-03-07T23:13:50.222Z,9.20
2023-03-07T23:16:22.112Z,9.15
2023-03-07T23:18:50.917Z,9.70
2023-03-07T23:21:20.899Z,9.10
2023-03-07T23:23:48.163Z,8.52
2023-03-07T23:26:27.679Z,8.48
2023-03-07T23:28:55.294Z,8.45
2023-03-07T23:31:33.853Z,8.50
2023-03-07T23:34:05.994Z,8.90
2023-03-07T23:36:33.757Z,9.10
2023-03-07T23:39:10.655Z,9.77
2023-03-07T23:41:38.108Z,7.85
2023-03-07T23:44:05.558Z,8.48
2023-03-07T23:46:32.918Z,8.73
2023-03-07T23:48:59.858Z,7.72
2023-03-07T23:51:27.217Z,8.63
2023-03-07T23:53:54.216Z,7.93
2023-03-07T23:56:21.455Z,8.38
2023-03-07T23:58:53.823Z,9.35
